Time;durP1;ratioP1;P1;durP2;ratioP2;P2;SDS_P1;SDS_P2;PMS_P1;PMS_P2;Temp;Humidity;BMP_temperature;BMP_pressure;BME280_temperature;BME280_humidity;BME280_pressure;Samples;Min_cycle;Max_cycle;Signal;HPM_P1;HPM_P2
2023/05/03 00:01:35;;;;;;;;;;;9.50;99.90;;;;;;5103602;28;19920;-69
2023/05/03 00:04:02;;;;;;;;;;;9.50;99.90;;;;;;5094989;28;20231;-69
2023/05/03 00:06:30;;;;;;;;;;;9.50;99.90;;;;;;5082850;28;19927;-69
2023/05/03 00:08:56;;;;;;;;;;;9.50;99.90;;;;;;5083553;28;20042;-69
2023/05/03 00:11:23;;;;;;;;;;;9.50;99.90;;;;;;5083267;28;20212;-70
2023/05/03 00:13:51;;;;;;;;;;;9.50;99.90;;;;;;5083119;28;19995;-69
2023/05/03 00:16:18;;;;;;;;;;;9.50;99.90;;;;;;5082444;28;19928;-69
2023/05/03 00:18:45;;;;;;;;;;;9.50;99.90;;;;;;5083416;28;19927;-69
2023/05/03 00:21:11;;;;;;;;;;;9.50;99.90;;;;;;5096894;28;20224;-69
2023/05/03 00:23:38;;;;;;;;;;;9.50;99.90;;;;;;5103499;28;19958;-69
2023/05/03 00:26:05;;;;;;;;;;;9.30;99.90;;;;;;5102723;28;19956;-69
2023/05/03 00:28:32;;;;;;;;;;;9.40;99.90;;;;;;5103136;28;20183;-69
2023/05/03 00:31:06;;;;;;;;;;;9.40;99.90;;;;;;5103221;28;20255;-69
2023/05/03 00:33:32;;;;;;;;;;;9.40;99.90;;;;;;5103420;28;19920;-69
2023/05/03 00:35:59;;;;;;;;;;;9.40;99.90;;;;;;5106406;28;20151;-69
2023/05/03 00:38:25;;;;;;;;;;;9.30;99.90;;;;;;5094523;28;20222;-69
2023/05/03 00:40:53;;;;;;;;;;;9.30;99.90;;;;;;5087269;28;19952;-69
2023/05/03 00:43:20;;;;;;;;;;;9.30;99.90;;;;;;5086837;28;19920;-69
2023/05/03 00:45:47;;;;;;;;;;;9.20;99.90;;;;;;5086735;28;19952;-69
2023/05/03 00:48:16;;;;;;;;;;;9.20;99.90;;;;;;5086723;28;19927;-68
2023/05/03 00:50:43;;;;;;;;;;;9.10;99.90;;;;;;5086884;28;19967;-69
2023/05/03 00:53:10;;;;;;;;;;;9.10;99.90;;;;;;5086936;28;19979;-69
2023/05/03 00:55:37;;;;;;;;;;;9.10;99.90;;;;;;5086537;28;19996;-69
2023/05/03 00:58:03;;;;;;;;;;;9.10;99.90;;;;;;5086513;28;19987;-69
2023/05/03 01:00:31;;;;;;;;;;;9.00;99.90;;;;;;5086892;28;19987;-69
2023/05/03 01:02:58;;;;;;;;;;;8.90;99.90;;;;;;5087240;28;19952;-69
2023/05/03 01:05:28;;;;;;;;;;;9.00;99.90;;;;;;5106898;28;19920;-68
2023/05/03 01:07:59;;;;;;;;;;;9.00;99.90;;;;;;5106319;28;19920;-70
2023/05/03 01:10:30;;;;;;;;;;;9.00;99.90;;;;;;5106989;28;19927;-69
2023/05/03 01:13:04;;;;;;;;;;;8.90;99.90;;;;;;5106872;28;19966;-68
2023/05/03 01:15:41;;;;;;;;;;;8.90;99.90;;;;;;5106812;28;19927;-68
2023/05/03 01:18:12;;;;;;;;;;;8.90;99.90;;;;;;5106298;28;19926;-68
2023/05/03 01:20:42;;;;;;;;;;;8.90;99.90;;;;;;5106950;28;20143;-68
2023/05/03 01:23:14;;;;;;;;;;;8.90;99.90;;;;;;5106707;28;19920;-68
2023/05/03 01:25:42;;;;;;;;;;;8.90;99.90;;;;;;5106312;28;19920;-68
2023/05/03 01:28:09;;;;;;;;;;;8.90;99.90;;;;;;5106162;28;19926;-69
2023/05/03 01:30:36;;;;;;;;;;;8.80;99.90;;;;;;5106695;28;19951;-70
2023/05/03 01:33:04;;;;;;;;;;;8.80;99.90;;;;;;5106672;28;19958;-69
2023/05/03 01:35:35;;;;;;;;;;;8.80;99.90;;;;;;5106550;28;19927;-68
2023/05/03 01:38:03;;;;;;;;;;;8.80;99.90;;;;;;5106373;28;19924;-71
2023/05/03 01:40:30;;;;;;;;;;;8.70;99.90;;;;;;5106594;28;19920;-69
2023/05/03 01:42:59;;;;;;;;;;;8.70;99.90;;;;;;5106342;28;19991;-68
2023/05/03 01:45:26;;;;;;;;;;;8.70;99.90;;;;;;5105977;28;20234;-68
2023/05/03 01:47:52;;;;;;;;;;;8.70;99.90;;;;;;5104020;28;20115;-68
2023/05/03 01:50:19;;;;;;;;;;;8.60;99.90;;;;;;5104710;28;19920;-68
2023/05/03 01:52:45;;;;;;;;;;;8.60;99.90;;;;;;5105409;28;19920;-69
2023/05/03 01:55:12;;;;;;;;;;;8.50;99.90;;;;;;5102927;28;19983;-68
2023/05/03 01:57:39;;;;;;;;;;;8.50;99.90;;;;;;5105539;28;19926;-69
2023/05/03 02:00:08;;;;;;;;;;;8.50;99.90;;;;;;5104424;28;19936;-69
2023/05/03 02:02:35;;;;;;;;;;;8.40;99.90;;;;;;5105578;28;19920;-69
2023/05/03 02:05:02;;;;;;;;;;;8.40;99.90;;;;;;5102135;28;19920;-69
2023/05/03 02:07:29;;;;;;;;;;;8.40;99.90;;;;;;5105120;28;19978;-68
2023/05/03 02:09:55;;;;;;;;;;;8.30;99.90;;;;;;5105836;28;19962;-69
2023/05/03 02:12:22;;;;;;;;;;;8.30;99.90;;;;;;5104996;28;19983;-71
2023/05/03 02:14:50;;;;;;;;;;;8.30;99.90;;;;;;5105659;28;19927;-69
2023/05/03 02:17:19;;;;;;;;;;;8.30;99.90;;;;;;5104647;28;19920;-68
2023/05/03 02:19:46;;;;;;;;;;;8.30;99.90;;;;;;5105829;28;19961;-69
2023/05/03 02:22:12;;;;;;;;;;;8.20;99.90;;;;;;5105439;28;20148;-68
2023/05/03 02:24:39;;;;;;;;;;;8.20;99.90;;;;;;5105424;28;19920;-68
2023/05/03 02:27:06;;;;;;;;;;;8.10;99.90;;;;;;5104976;28;19921;-69
2023/05/03 02:29:32;;;;;;;;;;;8.10;99.90;;;;;;5105544;28;19970;-67
2023/05/03 02:31:59;;;;;;;;;;;8.10;99.90;;;;;;5084860;28;19952;-70
2023/05/03 02:34:27;;;;;;;;;;;8.10;99.90;;;;;;5085004;28;19921;-68
2023/05/03 02:36:54;;;;;;;;;;;8.10;99.90;;;;;;5084372;28;19920;-68
2023/05/03 02:39:20;;;;;;;;;;;8.10;99.90;;;;;;5084782;28;19920;-68
2023/05/03 02:41:47;;;;;;;;;;;8.00;99.90;;;;;;5084837;28;19952;-69
2023/05/03 02:44:14;;;;;;;;;;;8.00;99.90;;;;;;5085269;28;19992;-69
2023/05/03 02:46:40;;;;;;;;;;;8.00;99.90;;;;;;5084099;28;20137;-69
2023/05/03 02:49:10;;;;;;;;;;;8.00;99.90;;;;;;5084746;28;19921;-69
2023/05/03 02:51:38;;;;;;;;;;;7.90;99.90;;;;;;5084779;28;19920;-69
2023/05/03 02:54:05;;;;;;;;;;;7.90;99.90;;;;;;5084602;28;19927;-69
2023/05/03 02:56:32;;;;;;;;;;;7.80;99.90;;;;;;5084032;28;19936;-69
2023/05/03 02:58:58;;;;;;;;;;;7.80;99.90;;;;;;5083391;28;20167;-68
2023/05/03 03:01:26;;;;;;;;;;;7.70;99.90;;;;;;5084316;28;19985;-67
2023/05/03 03:03:52;;;;;;;;;;;7.70;99.90;;;;;;5084303;28;19920;-67
2023/05/03 03:06:19;;;;;;;;;;;7.70;99.90;;;;;;5091979;28;19984;-68
2023/05/03 03:08:47;;;;;;;;;;;7.60;99.90;;;;;;5104945;28;20231;-68
2023/05/03 03:11:14;;;;;;;;;;;7.60;99.90;;;;;;5104760;28;19940;-68
2023/05/03 03:13:41;;;;;;;;;;;7.50;99.90;;;;;;5105153;28;19960;-69
2023/05/03 03:16:07;;;;;;;;;;;7.50;99.90;;;;;;5104024;28;19920;-68
2023/05/03 03:18:34;;;;;;;;;;;7.50;99.90;;;;;;5104422;28;20119;-68
2023/05/03 03:21:01;;;;;;;;;;;7.50;99.90;;;;;;5102842;28;19955;-68
2023/05/03 03:23:27;;;;;;;;;;;7.40;99.90;;;;;;5093298;28;19973;-69
2023/05/03 03:25:55;;;;;;;;;;;7.50;99.90;;;;;;5104016;28;20003;-70
2023/05/03 03:28:22;;;;;;;;;;;7.40;99.90;;;;;;5103728;28;20328;-68
2023/05/03 03:30:49;;;;;;;;;;;7.40;99.90;;;;;;5101908;28;19987;-69
2023/05/03 03:33:15;;;;;;;;;;;7.40;99.90;;;;;;5104332;28;19983;-68
2023/05/03 03:35:42;;;;;;;;;;;7.30;99.90;;;;;;5103830;28;19979;-68
2023/05/03 03:38:08;;;;;;;;;;;7.20;99.90;;;;;;5103816;28;20207;-71
2023/05/03 03:40:35;;;;;;;;;;;7.10;99.90;;;;;;5104279;28;19978;-68
2023/05/03 03:43:03;;;;;;;;;;;7.10;99.90;;;;;;5086258;28;19959;-68
2023/05/03 03:45:30;;;;;;;;;;;7.00;99.90;;;;;;5083463;28;20204;-69
2023/05/03 03:47:56;;;;;;;;;;;7.00;99.90;;;;;;5087470;28;19979;-68
2023/05/03 03:50:24;;;;;;;;;;;7.00;99.90;;;;;;5104001;28;19926;-68
2023/05/03 03:52:50;;;;;;;;;;;7.00;99.90;;;;;;5088949;28;19927;-68
2023/05/03 03:55:17;;;;;;;;;;;6.90;99.90;;;;;;5083624;28;20149;-69
2023/05/03 03:57:43;;;;;;;;;;;6.90;99.90;;;;;;5083141;28;19987;-68
2023/05/03 04:00:13;;;;;;;;;;;6.90;99.90;;;;;;5083621;28;20112;-68
2023/05/03 04:02:40;;;;;;;;;;;6.90;99.90;;;;;;5083541;28;19927;-68
2023/05/03 04:05:07;;;;;;;;;;;6.80;99.90;;;;;;5087011;28;19920;-69
2023/05/03 04:07:33;;;;;;;;;;;6.80;99.90;;;;;;5103110;28;19946;-73
2023/05/03 04:10:00;;;;;;;;;;;6.80;99.90;;;;;;5085263;28;20107;-69
2023/05/03 04:12:26;;;;;;;;;;;6.80;99.90;;;;;;5083419;28;19995;-68
2023/05/03 04:14:53;;;;;;;;;;;6.70;99.90;;;;;;5098097;28;19988;-68
2023/05/03 04:17:21;;;;;;;;;;;6.70;99.90;;;;;;5103134;28;20208;-69
2023/05/03 04:19:48;;;;;;;;;;;6.70;99.90;;;;;;5103730;28;19927;-68
2023/05/03 04:22:15;;;;;;;;;;;6.60;99.90;;;;;;5103148;28;19920;-68
2023/05/03 04:24:42;;;;;;;;;;;6.60;99.90;;;;;;5103584;28;19955;-68
2023/05/03 04:27:10;;;;;;;;;;;6.60;99.90;;;;;;5103410;28;20168;-69
2023/05/03 04:29:37;;;;;;;;;;;6.60;99.90;;;;;;5103508;28;19926;-68
2023/05/03 04:32:05;;;;;;;;;;;6.60;99.90;;;;;;5102851;28;19920;-69
2023/05/03 04:34:33;;;;;;;;;;;6.60;99.90;;;;;;5103562;28;19920;-67
2023/05/03 04:37:00;;;;;;;;;;;6.60;99.90;;;;;;5102752;28;20097;-67
2023/05/03 04:39:27;;;;;;;;;;;6.60;99.90;;;;;;5103639;28;20142;-70
2023/05/03 04:41:53;;;;;;;;;;;6.70;99.90;;;;;;5103468;28;19983;-68
2023/05/03 04:44:21;;;;;;;;;;;6.70;99.90;;;;;;5103517;28;19956;-68
2023/05/03 04:46:48;;;;;;;;;;;6.70;99.90;;;;;;5102687;28;19927;-68
2023/05/03 04:49:15;;;;;;;;;;;6.70;99.90;;;;;;5102789;28;19920;-70
2023/05/03 04:51:43;;;;;;;;;;;6.70;99.90;;;;;;5103463;28;19979;-68
2023/05/03 04:54:09;;;;;;;;;;;6.70;99.90;;;;;;5103464;28;20093;-69
2023/05/03 04:56:36;;;;;;;;;;;6.70;99.90;;;;;;5102689;28;20205;-68
2023/05/03 04:59:04;;;;;;;;;;;6.70;99.90;;;;;;5103310;28;19932;-68
2023/05/03 05:01:31;;;;;;;;;;;6.70;99.90;;;;;;5103347;28;19923;-72
2023/05/03 05:03:58;;;;;;;;;;;6.70;99.90;;;;;;5103275;28;19920;-69
2023/05/03 05:06:24;;;;;;;;;;;6.70;99.90;;;;;;5102331;28;19976;-68
2023/05/03 05:08:52;;;;;;;;;;;6.70;99.90;;;;;;5102921;28;20216;-68
2023/05/03 05:11:19;;;;;;;;;;;6.80;99.90;;;;;;5103324;28;19983;-73
2023/05/03 05:13:46;;;;;;;;;;;6.80;99.90;;;;;;5102880;28;20168;-68
2023/05/03 05:16:14;;;;;;;;;;;6.90;99.90;;;;;;5102481;28;19920;-68
2023/05/03 05:18:41;;;;;;;;;;;7.00;99.90;;;;;;5101539;28;19992;-69
2023/05/03 05:21:07;;;;;;;;;;;7.00;99.90;;;;;;5082656;28;20256;-69
2023/05/03 05:23:35;;;;;;;;;;;7.10;99.90;;;;;;5086159;28;19927;-68
2023/05/03 05:26:03;;;;;;;;;;;7.20;99.90;;;;;;5085811;28;19927;-69
2023/05/03 05:28:30;;;;;;;;;;;7.30;99.90;;;;;;5085165;28;19927;-68
2023/05/03 05:30:56;;;;;;;;;;;7.30;99.90;;;;;;5086241;28;19920;-69
2023/05/03 05:33:23;;;;;;;;;;;7.40;99.90;;;;;;5097945;28;20015;-69
2023/05/03 05:35:50;;;;;;;;;;;7.50;99.90;;;;;;5105050;28;19994;-67
2023/05/03 05:38:17;;;;;;;;;;;7.60;99.90;;;;;;5105882;28;19924;-68
2023/05/03 05:40:44;;;;;;;;;;;7.60;99.90;;;;;;5106592;28;19927;-72
2023/05/03 05:43:12;;;;;;;;;;;7.80;99.90;;;;;;5106062;28;20113;-69
2023/05/03 05:45:38;;;;;;;;;;;7.90;99.90;;;;;;5105611;28;19987;-69
2023/05/03 05:48:05;;;;;;;;;;;7.80;99.90;;;;;;5106028;28;20279;-69
2023/05/03 05:50:32;;;;;;;;;;;7.90;99.90;;;;;;5105635;28;19987;-68
2023/05/03 05:52:58;;;;;;;;;;;7.90;99.90;;;;;;5106146;28;19996;-68
2023/05/03 05:55:25;;;;;;;;;;;7.90;99.90;;;;;;5105730;28;19920;-69
2023/05/03 05:57:51;;;;;;;;;;;7.90;99.90;;;;;;5105217;28;20201;-68
2023/05/03 06:00:20;;;;;;;;;;;8.00;99.90;;;;;;5105605;28;19947;-69
2023/05/03 06:02:47;;;;;;;;;;;8.00;99.90;;;;;;5105889;28;20085;-68
2023/05/03 06:05:14;;;;;;;;;;;8.00;99.90;;;;;;5104936;28;19947;-70
2023/05/03 06:07:40;;;;;;;;;;;8.00;99.90;;;;;;5105083;28;20033;-68
2023/05/03 06:10:07;;;;;;;;;;;8.00;99.90;;;;;;5105420;28;19948;-70
2023/05/03 06:12:35;;;;;;;;;;;8.10;99.90;;;;;;5091420;28;19955;-69
2023/05/03 06:15:02;;;;;;;;;;;8.20;99.90;;;;;;5096872;28;19924;-68
2023/05/03 06:17:29;;;;;;;;;;;8.20;99.90;;;;;;5104904;28;19929;-70
2023/05/03 06:19:57;;;;;;;;;;;8.20;99.90;;;;;;5105373;28;19920;-69
2023/05/03 06:22:23;;;;;;;;;;;8.20;99.90;;;;;;5104722;28;19942;-69
2023/05/03 06:24:50;;;;;;;;;;;8.30;99.90;;;;;;5105426;28;19959;-68
2023/05/03 06:27:17;;;;;;;;;;;8.30;99.90;;;;;;5104737;28;19942;-69
2023/05/03 06:29:44;;;;;;;;;;;8.40;99.90;;;;;;5105438;28;19988;-69
2023/05/03 06:32:11;;;;;;;;;;;8.40;99.90;;;;;;5104821;28;19920;-69
2023/05/03 06:34:39;;;;;;;;;;;8.50;99.90;;;;;;5105163;28;19921;-72
2023/05/03 06:37:06;;;;;;;;;;;8.50;99.90;;;;;;5104211;28;19981;-68
2023/05/03 06:39:32;;;;;;;;;;;8.50;99.90;;;;;;5102480;28;19920;-68
2023/05/03 06:41:59;;;;;;;;;;;8.60;99.90;;;;;;5089236;28;19982;-69
2023/05/03 06:44:26;;;;;;;;;;;8.60;99.90;;;;;;5105070;28;20139;-69
2023/05/03 06:46:53;;;;;;;;;;;8.70;99.90;;;;;;5103953;28;19958;-69
2023/05/03 06:49:20;;;;;;;;;;;8.70;99.90;;;;;;5105108;28;19956;-69
2023/05/03 06:51:48;;;;;;;;;;;8.80;99.90;;;;;;5105034;28;19920;-69
2023/05/03 06:54:15;;;;;;;;;;;8.90;99.90;;;;;;5104707;28;19926;-70
2023/05/03 06:56:42;;;;;;;;;;;9.00;99.90;;;;;;5103898;28;19982;-68
2023/05/03 06:59:08;;;;;;;;;;;9.10;99.90;;;;;;5097274;28;19983;-69
2023/05/03 07:01:35;;;;;;;;;;;9.20;99.90;;;;;;5094946;28;20270;-68
2023/05/03 07:04:01;;;;;;;;;;;9.30;99.90;;;;;;5104181;28;19987;-67
2023/05/03 07:06:28;;;;;;;;;;;9.40;99.90;;;;;;5103668;28;19962;-69
2023/05/03 07:08:56;;;;;;;;;;;9.40;99.90;;;;;;5104412;28;19952;-68
2023/05/03 07:11:23;;;;;;;;;;;9.50;99.90;;;;;;5104453;28;19987;-70
2023/05/03 07:13:51;;;;;;;;;;;9.60;99.90;;;;;;5104013;28;19935;-68
2023/05/03 07:16:17;;;;;;;;;;;9.70;99.90;;;;;;5104088;28;19957;-69
2023/05/03 07:18:45;;;;;;;;;;;9.70;99.90;;;;;;5104317;28;19945;-68
2023/05/03 07:21:12;;;;;;;;;;;9.80;99.90;;;;;;5103898;28;19927;-69
2023/05/03 07:23:38;;;;;;;;;;;9.90;99.90;;;;;;5104405;28;20005;-68
2023/05/03 07:26:06;;;;;;;;;;;9.90;99.90;;;;;;5103357;28;19991;-68
2023/05/03 07:28:33;;;;;;;;;;;9.90;99.90;;;;;;5104266;28;20116;-68
2023/05/03 07:31:00;;;;;;;;;;;10.00;99.90;;;;;;5103821;28;19967;-68
2023/05/03 07:33:26;;;;;;;;;;;10.00;99.90;;;;;;5104287;28;19961;-69
2023/05/03 07:35:53;;;;;;;;;;;10.00;99.90;;;;;;5102426;28;19963;-68
2023/05/03 07:38:20;;;;;;;;;;;10.10;99.90;;;;;;5103937;28;19921;-68
2023/05/03 07:40:46;;;;;;;;;;;10.20;99.90;;;;;;5089740;28;19920;-69
2023/05/03 07:43:15;;;;;;;;;;;10.30;99.90;;;;;;5103604;28;20272;-68
2023/05/03 07:45:42;;;;;;;;;;;10.40;99.90;;;;;;5102391;28;19981;-69
2023/05/03 07:48:08;;;;;;;;;;;10.40;99.90;;;;;;5103589;28;19947;-69
2023/05/03 07:50:35;;;;;;;;;;;10.60;99.90;;;;;;5103575;28;19926;-68
2023/05/03 07:53:02;;;;;;;;;;;10.60;99.90;;;;;;5120685;28;19954;-67
2023/05/03 07:55:31;;;;;;;;;;;10.60;99.90;;;;;;5105923;28;19947;-68
2023/05/03 07:57:58;;;;;;;;;;;10.60;99.90;;;;;;5102817;28;20266;-68
2023/05/03 08:00:27;;;;;;;;;;;10.70;99.90;;;;;;5103634;28;19920;-68
2023/05/03 08:02:53;;;;;;;;;;;10.70;99.90;;;;;;5103389;28;19920;-68
2023/05/03 08:05:20;;;;;;;;;;;10.80;99.90;;;;;;5103083;28;19920;-67
2023/05/03 08:07:47;;;;;;;;;;;10.80;99.90;;;;;;5102719;28;19926;-70
2023/05/03 08:10:14;;;;;;;;;;;10.90;99.90;;;;;;5103658;28;19927;-68
2023/05/03 08:12:40;;;;;;;;;;;10.90;99.90;;;;;;5103453;28;19983;-67
2023/05/03 08:15:07;;;;;;;;;;;11.00;99.90;;;;;;5103626;28;19978;-68
2023/05/03 08:17:41;;;;;;;;;;;11.10;99.90;;;;;;5102793;28;20248;-67
2023/05/03 08:20:08;;;;;;;;;;;11.10;99.90;;;;;;5102886;28;19920;-68
2023/05/03 08:22:35;;;;;;;;;;;11.20;99.90;;;;;;5103527;28;19924;-68
2023/05/03 08:25:03;;;;;;;;;;;11.30;99.90;;;;;;5103407;28;19952;-67
2023/05/03 08:27:30;;;;;;;;;;;11.40;99.90;;;;;;5103349;28;19958;-68
2023/05/03 08:29:56;;;;;;;;;;;11.40;99.90;;;;;;5103322;28;19924;-68
2023/05/03 08:32:23;;;;;;;;;;;11.50;99.90;;;;;;5103134;28;20089;-69
2023/05/03 08:34:52;;;;;;;;;;;11.60;99.90;;;;;;5103246;28;19955;-69
2023/05/03 08:37:19;;;;;;;;;;;11.60;99.90;;;;;;5100661;28;19975;-68
2023/05/03 08:39:47;;;;;;;;;;;11.60;99.90;;;;;;5103496;28;19987;-68
2023/05/03 08:42:13;;;;;;;;;;;11.70;99.90;;;;;;5102779;28;20207;-67
2023/05/03 08:44:44;;;;;;;;;;;11.80;99.90;;;;;;5103328;28;19982;-67
2023/05/03 08:47:11;;;;;;;;;;;11.80;99.90;;;;;;5102671;28;19933;-67
2023/05/03 08:49:39;;;;;;;;;;;11.80;99.90;;;;;;5095973;28;19926;-68
2023/05/03 08:52:09;;;;;;;;;;;11.90;99.90;;;;;;5083072;28;19924;-70
2023/05/03 08:54:36;;;;;;;;;;;11.90;99.90;;;;;;5098837;28;19943;-67
2023/05/03 08:57:02;;;;;;;;;;;12.00;99.90;;;;;;5104176;28;19920;-68
2023/05/03 08:59:29;;;;;;;;;;;12.00;99.90;;;;;;5106814;28;19952;-68
2023/05/03 09:01:56;;;;;;;;;;;12.00;99.90;;;;;;5106856;28;19995;-67
2023/05/03 09:04:31;;;;;;;;;;;12.10;99.90;;;;;;5106705;28;19958;-70
2023/05/03 09:07:08;;;;;;;;;;;12.00;99.90;;;;;;5086195;28;19942;-67
2023/05/03 09:09:35;;;;;;;;;;;12.20;99.90;;;;;;5086797;28;19991;-68
2023/05/03 09:12:02;;;;;;;;;;;12.30;99.90;;;;;;5104302;28;19920;-69
2023/05/03 09:14:28;;;;;;;;;;;12.40;99.90;;;;;;5106908;28;19920;-68
2023/05/03 09:16:55;;;;;;;;;;;12.50;99.90;;;;;;5106109;28;19920;-67
2023/05/03 09:19:23;;;;;;;;;;;12.50;99.90;;;;;;5106835;28;19987;-69
2023/05/03 09:21:50;;;;;;;;;;;12.60;99.90;;;;;;5106655;28;19977;-68
2023/05/03 09:24:18;;;;;;;;;;;12.70;99.90;;;;;;5106742;28;19924;-68
2023/05/03 09:26:45;;;;;;;;;;;12.80;99.90;;;;;;5101656;28;19943;-68
2023/05/03 09:29:26;;;;;;;;;;;13.00;99.90;;;;;;5099216;28;19920;-68
2023/05/03 09:31:58;;;;;;;;;;;13.20;99.90;;;;;;5106599;28;19982;-68
2023/05/03 09:34:24;;;;;;;;;;;13.30;99.90;;;;;;5106089;28;19924;-68
2023/05/03 09:36:51;;;;;;;;;;;13.40;99.90;;;;;;5105444;28;19920;-67
2023/05/03 09:39:19;;;;;;;;;;;13.50;99.90;;;;;;5106520;28;19920;-68
2023/05/03 09:41:46;;;;;;;;;;;13.60;99.90;;;;;;5106272;28;19927;-68
2023/05/03 09:44:13;;;;;;;;;;;13.50;99.90;;;;;;5105960;28;19983;-68
2023/05/03 09:46:39;;;;;;;;;;;13.60;99.90;;;;;;5105249;28;19920;-67
2023/05/03 09:49:06;;;;;;;;;;;13.60;99.90;;;;;;5106401;28;19920;-68
2023/05/03 09:51:33;;;;;;;;;;;13.60;99.90;;;;;;5106304;28;20046;-68
2023/05/03 09:54:00;;;;;;;;;;;13.60;99.90;;;;;;5106193;28;19926;-67
2023/05/03 09:56:28;;;;;;;;;;;13.70;99.90;;;;;;5105366;28;19920;-68
2023/05/03 09:58:58;;;;;;;;;;;13.80;99.90;;;;;;5105759;28;19920;-68
2023/05/03 10:01:25;;;;;;;;;;;13.90;99.90;;;;;;5105989;28;19929;-69
2023/05/03 10:03:53;;;;;;;;;;;13.90;99.90;;;;;;5105517;28;19926;-67
2023/05/03 10:06:23;;;;;;;;;;;14.00;99.90;;;;;;5105109;28;19920;-68
2023/05/03 10:08:53;;;;;;;;;;;14.10;99.90;;;;;;5085026;28;20177;-67
2023/05/03 10:11:20;;;;;;;;;;;13.90;99.90;;;;;;5105841;28;19962;-72
2023/05/03 10:13:48;;;;;;;;;;;13.90;99.90;;;;;;5105444;28;19920;-68
2023/05/03 10:16:19;;;;;;;;;;;14.00;99.90;;;;;;5105027;28;19983;-68
2023/05/03 10:18:49;;;;;;;;;;;13.90;99.90;;;;;;5105470;28;19983;-69
2023/05/03 10:21:19;;;;;;;;;;;13.90;99.90;;;;;;5096597;28;19920;-68
2023/05/03 10:24:11;;;;;;;;;;;14.10;99.90;;;;;;5105230;28;19927;-67
2023/05/03 10:26:39;;;;;;;;;;;14.20;99.90;;;;;;5084788;28;19942;-68
2023/05/03 10:29:27;;;;;;;;;;;14.40;99.90;;;;;;5105419;28;19920;-68
2023/05/03 10:31:54;;;;;;;;;;;14.30;99.90;;;;;;5105050;28;19987;-68
2023/05/03 10:34:21;;;;;;;;;;;14.30;99.90;;;;;;5105203;28;19955;-67
2023/05/03 10:36:51;;;;;;;;;;;14.40;99.90;;;;;;5101405;28;19983;-67
2023/05/03 10:39:18;;;;;;;;;;;14.40;99.90;;;;;;5105312;28;20009;-67
2023/05/03 10:41:45;;;;;;;;;;;14.50;99.90;;;;;;5105176;28;19920;-67
2023/05/03 10:44:28;;;;;;;;;;;14.50;99.90;;;;;;5104929;28;19920;-67
2023/05/03 10:46:55;;;;;;;;;;;14.60;99.90;;;;;;5104230;28;19962;-67
2023/05/03 10:49:22;;;;;;;;;;;14.50;99.90;;;;;;5105110;28;19959;-68
2023/05/03 10:51:49;;;;;;;;;;;14.70;99.90;;;;;;5104837;28;19920;-67
2023/05/03 10:54:18;;;;;;;;;;;15.10;99.90;;;;;;5105048;28;20205;-70
2023/05/03 10:56:51;;;;;;;;;;;15.30;99.90;;;;;;5104254;28;20150;-67
2023/05/03 10:59:18;;;;;;;;;;;15.50;99.90;;;;;;5093780;28;19926;-67
2023/05/03 11:01:48;;;;;;;;;;;15.70;99.90;;;;;;5090593;28;19991;-69
2023/05/03 11:04:19;;;;;;;;;;;15.90;99.90;;;;;;5104750;28;20066;-67
2023/05/03 11:06:50;;;;;;;;;;;16.00;99.90;;;;;;5103542;28;20147;-67
2023/05/03 11:09:17;;;;;;;;;;;16.20;99.90;;;;;;5104541;28;20109;-69
2023/05/03 11:11:43;;;;;;;;;;;16.30;99.90;;;;;;5104218;28;20261;-67
2023/05/03 11:14:12;;;;;;;;;;;16.40;99.90;;;;;;5101601;28;19927;-67
2023/05/03 11:16:45;;;;;;;;;;;16.50;99.90;;;;;;5082603;28;19920;-67
2023/05/03 11:19:16;;;;;;;;;;;16.60;99.90;;;;;;5081055;28;21138;-71
2023/05/03 11:21:42;;;;;;;;;;;16.80;99.90;;;;;;5100964;28;20250;-68
2023/05/03 11:24:09;;;;;;;;;;;16.90;99.90;;;;;;5104425;28;19920;-68
2023/05/03 11:26:36;;;;;;;;;;;17.00;99.90;;;;;;5100431;28;20184;-67
2023/05/03 11:29:03;;;;;;;;;;;17.10;99.90;;;;;;5099869;28;19959;-67
2023/05/03 11:31:30;;;;;;;;;;;17.20;99.90;;;;;;5100063;28;19921;-67
2023/05/03 11:33:57;;;;;;;;;;;17.30;99.90;;;;;;5103703;28;19963;-68
2023/05/03 11:36:26;;;;;;;;;;;17.50;99.90;;;;;;5103723;28;19984;-67
2023/05/03 11:38:53;;;;;;;;;;;17.70;99.90;;;;;;5103967;28;19927;-68
2023/05/03 11:41:20;;;;;;;;;;;18.00;99.90;;;;;;5103805;28;19926;-67
2023/05/03 11:43:47;;;;;;;;;;;18.30;99.90;;;;;;5088537;28;20115;-69
2023/05/03 11:46:15;;;;;;;;;;;18.40;99.90;;;;;;5102968;28;19955;-68
2023/05/03 11:48:43;;;;;;;;;;;18.50;99.90;;;;;;5090688;28;19984;-68
2023/05/03 11:51:11;;;;;;;;;;;18.50;99.90;;;;;;5101093;28;20111;-68
2023/05/03 11:53:39;;;;;;;;;;;18.70;99.90;;;;;;5103499;28;19983;-68
2023/05/03 11:56:07;;;;;;;;;;;19.00;99.90;;;;;;5103157;28;19920;-69
2023/05/03 11:58:34;;;;;;;;;;;19.10;99.90;;;;;;5103619;28;20184;-74
2023/05/03 12:01:02;;;;;;;;;;;19.00;99.90;;;;;;5103454;28;19920;-68
2023/05/03 12:03:30;;;;;;;;;;;18.90;99.90;;;;;;5102854;28;19926;-68
2023/05/03 12:05:56;;;;;;;;;;;19.00;99.90;;;;;;5103020;28;19961;-70
2023/05/03 12:08:28;;;;;;;;;;;18.90;99.90;;;;;;5103196;28;19962;-69
2023/05/03 12:10:56;;;;;;;;;;;18.70;99.90;;;;;;5101081;28;19927;-70
2023/05/03 12:13:29;;;;;;;;;;;18.40;99.90;;;;;;5102848;28;19920;-69
2023/05/03 12:15:57;;;;;;;;;;;18.20;99.90;;;;;;5103196;28;19927;-69
2023/05/03 12:18:23;;;;;;;;;;;18.10;99.90;;;;;;5103278;28;19921;-68
2023/05/03 12:20:56;;;;;;;;;;;18.00;99.90;;;;;;5103376;28;19927;-69
2023/05/03 12:23:23;;;;;;;;;;;18.10;99.90;;;;;;5103221;28;19953;-70
2023/05/03 12:25:50;;;;;;;;;;;18.20;99.90;;;;;;5100157;28;19955;-68
2023/05/03 12:28:18;;;;;;;;;;;18.20;99.90;;;;;;5103289;28;20155;-69
2023/05/03 12:30:45;;;;;;;;;;;18.00;99.90;;;;;;5104791;28;19983;-69
2023/05/03 12:33:11;;;;;;;;;;;18.00;99.90;;;;;;5103302;28;20166;-69
2023/05/03 12:35:39;;;;;;;;;;;18.30;99.90;;;;;;5107200;28;19951;-69
2023/05/03 12:38:07;;;;;;;;;;;18.60;99.90;;;;;;5106476;28;20119;-70
2023/05/03 12:40:33;;;;;;;;;;;18.80;99.90;;;;;;5107662;28;19920;-69
2023/05/03 12:43:00;;;;;;;;;;;19.20;99.90;;;;;;5106405;28;20191;-69
2023/05/03 12:45:29;;;;;;;;;;;19.40;99.90;;;;;;5107497;28;19926;-69
2023/05/03 12:47:55;;;;;;;;;;;19.60;99.90;;;;;;5106285;28;20200;-69
2023/05/03 12:50:22;;;;;;;;;;;19.60;99.90;;;;;;5107139;28;19983;-69
2023/05/03 12:52:49;;;;;;;;;;;19.40;99.90;;;;;;5107264;28;19983;-70
2023/05/03 12:55:15;;;;;;;;;;;19.50;99.90;;;;;;5093586;28;19951;-69
2023/05/03 12:57:42;;;;;;;;;;;19.70;99.90;;;;;;5106327;28;19950;-69
2023/05/03 13:00:10;;;;;;;;;;;20.00;99.90;;;;;;5092522;28;19927;-69
2023/05/03 13:02:38;;;;;;;;;;;20.20;99.90;;;;;;5105984;28;19920;-70
2023/05/03 13:05:06;;;;;;;;;;;20.30;99.90;;;;;;5106774;28;19983;-69
2023/05/03 13:07:32;;;;;;;;;;;20.60;99.90;;;;;;5106270;28;20384;-70
2023/05/03 13:09:59;;;;;;;;;;;20.80;99.90;;;;;;5106899;28;19979;-69
2023/05/03 13:12:26;;;;;;;;;;;20.60;99.90;;;;;;5106770;28;19921;-70
2023/05/03 13:14:53;;;;;;;;;;;20.40;99.90;;;;;;5106558;28;19927;-69
2023/05/03 13:17:21;;;;;;;;;;;20.20;99.90;;;;;;5098785;28;19966;-70
2023/05/03 13:19:49;;;;;;;;;;;19.90;99.90;;;;;;5101562;28;20108;-70
2023/05/03 13:22:16;;;;;;;;;;;20.00;99.90;;;;;;5106731;28;19920;-69
2023/05/03 13:24:44;;;;;;;;;;;20.10;99.90;;;;;;5106199;28;19983;-69
2023/05/03 13:27:11;;;;;;;;;;;20.30;99.90;;;;;;5106093;28;19962;-69
2023/05/03 13:29:37;;;;;;;;;;;20.70;99.90;;;;;;5105898;28;19928;-69
2023/05/03 13:32:04;;;;;;;;;;;21.10;99.90;;;;;;5106370;28;19983;-69
2023/05/03 13:34:31;;;;;;;;;;;20.80;99.90;;;;;;5106445;28;19920;-69
2023/05/03 13:36:59;;;;;;;;;;;20.30;99.90;;;;;;5104833;28;19935;-70
2023/05/03 13:39:26;;;;;;;;;;;19.80;99.90;;;;;;5106125;28;20203;-69
2023/05/03 13:41:52;;;;;;;;;;;19.50;99.90;;;;;;5105319;28;19956;-68
2023/05/03 13:44:19;;;;;;;;;;;19.20;99.90;;;;;;5105804;28;19956;-69
2023/05/03 13:46:46;;;;;;;;;;;19.20;99.90;;;;;;5105761;28;19955;-70
2023/05/03 13:49:13;;;;;;;;;;;19.40;99.90;;;;;;5105788;28;20172;-69
2023/05/03 13:51:39;;;;;;;;;;;19.50;99.90;;;;;;5109191;28;20204;-68
2023/05/03 13:54:07;;;;;;;;;;;19.70;99.90;;;;;;5114586;28;19952;-69
2023/05/03 13:56:34;;;;;;;;;;;20.00;99.90;;;;;;5103009;28;20256;-69
2023/05/03 13:59:01;;;;;;;;;;;20.50;99.90;;;;;;5105434;28;19943;-68
2023/05/03 14:01:28;;;;;;;;;;;20.60;99.90;;;;;;5103474;28;19991;-70
2023/05/03 14:03:55;;;;;;;;;;;20.80;99.90;;;;;;5097474;28;20085;-69
2023/05/03 14:06:21;;;;;;;;;;;20.70;99.90;;;;;;5095317;28;19924;-68
2023/05/03 14:08:48;;;;;;;;;;;20.80;99.90;;;;;;5104665;28;19920;-68
2023/05/03 14:11:16;;;;;;;;;;;21.00;99.90;;;;;;5104896;28;20190;-68
2023/05/03 14:13:43;;;;;;;;;;;21.10;99.90;;;;;;5105877;28;19987;-69
2023/05/03 14:16:15;;;;;;;;;;;21.30;99.90;;;;;;5102469;28;19947;-68
2023/05/03 14:18:41;;;;;;;;;;;21.30;99.90;;;;;;5105221;28;19962;-68
2023/05/03 14:21:08;;;;;;;;;;;21.40;99.90;;;;;;5105252;28;20195;-68
2023/05/03 14:23:35;;;;;;;;;;;21.60;99.90;;;;;;5095794;28;19920;-69
2023/05/03 14:26:03;;;;;;;;;;;21.80;99.90;;;;;;5084073;28;19920;-71